Time;durP1;ratioP1;P1;durP2;ratioP2;P2;SDS_P1;SDS_P2;PMS_P1;PMS_P2;Temp;Humidity;BMP_temperature;BMP_pressure;BME280_temperature;BME280_humidity;BME280_pressure;Samples;Min_cycle;Max_cycle;Signal;HPM_P1;HPM_P2
2023/08/21 00:01:09;;;;;;;7.70;2.57;;;;;;;;;;5056570;28;20032;-36
2023/08/21 00:03:35;;;;;;;8.47;2.53;;;;;;;;;;5056040;28;20067;-36
2023/08/21 00:06:00;;;;;;;9.07;2.70;;;;;;;;;;5056196;28;20027;-35
2023/08/21 00:08:25;;;;;;;14.37;2.97;;;;;;;;;;5056148;28;20256;-35
2023/08/21 00:10:50;;;;;;;5.43;2.37;;;;;;;;;;5056635;28;20028;-35
2023/08/21 00:13:15;;;;;;;6.87;2.53;;;;;;;;;;5055669;28;20041;-36
2023/08/21 00:15:40;;;;;;;9.83;2.67;;;;;;;;;;5055706;28;20280;-35
2023/08/21 00:18:06;;;;;;;6.63;2.60;;;;;;;;;;5055766;28;20301;-35
2023/08/21 00:20:31;;;;;;;4.95;2.50;;;;;;;;;;5055979;28;20657;-35
2023/08/21 00:22:56;;;;;;;11.13;2.63;;;;;;;;;;5055640;28;20108;-35
2023/08/21 00:25:22;;;;;;;9.15;2.67;;;;;;;;;;5055833;28;20032;-35
2023/08/21 00:27:47;;;;;;;8.60;2.55;;;;;;;;;;5056138;28;20052;-35
2023/08/21 00:30:14;;;;;;;8.03;2.50;;;;;;;;;;5055542;28;20353;-35
2023/08/21 00:32:39;;;;;;;6.70;2.65;;;;;;;;;;5056177;28;20025;-34
2023/08/21 00:35:05;;;;;;;6.47;2.40;;;;;;;;;;5055415;28;20024;-35
2023/08/21 00:37:30;;;;;;;9.20;2.60;;;;;;;;;;5055617;28;20259;-35
2023/08/21 00:39:55;;;;;;;7.50;2.57;;;;;;;;;;5055516;28;20371;-35
2023/08/21 00:42:20;;;;;;;8.87;2.80;;;;;;;;;;5055215;28;20279;-36
2023/08/21 00:44:45;;;;;;;7.00;2.30;;;;;;;;;;5053949;28;20016;-36
2023/08/21 00:47:11;;;;;;;7.03;2.50;;;;;;;;;;5055207;28;20659;-35
2023/08/21 00:49:36;;;;;;;7.37;2.57;;;;;;;;;;5055659;28;20292;-34
2023/08/21 00:52:02;;;;;;;7.53;3.20;;;;;;;;;;5055040;28;20384;-35
2023/08/21 00:54:27;;;;;;;10.40;2.28;;;;;;;;;;5055386;28;20061;-34
2023/08/21 00:56:52;;;;;;;10.27;2.58;;;;;;;;;;5055054;28;20373;-35
2023/08/21 00:59:18;;;;;;;6.55;2.22;;;;;;;;;;5055226;28;20512;-35
2023/08/21 01:01:44;;;;;;;7.72;2.72;;;;;;;;;;5054842;28;20074;-35
2023/08/21 01:04:09;;;;;;;7.95;3.00;;;;;;;;;;5055414;28;20044;-36
2023/08/21 01:06:34;;;;;;;8.25;2.47;;;;;;;;;;5055073;28;20104;-35
2023/08/21 01:09:17;;;;;;;10.17;2.37;;;;;;;;;;5054753;28;20024;-35
2023/08/21 01:11:45;;;;;;;8.35;2.60;;;;;;;;;;5054897;28;20280;-35
2023/08/21 01:14:20;;;;;;;6.13;2.50;;;;;;;;;;5055419;28;20025;-36
2023/08/21 01:16:47;;;;;;;8.75;2.30;;;;;;;;;;5053649;28;20071;-35
2023/08/21 01:19:18;;;;;;;7.15;2.30;;;;;;;;;;5054008;28;20100;-35
2023/08/21 01:21:44;;;;;;;6.50;2.30;;;;;;;;;;5054236;28;20029;-35
2023/08/21 01:24:09;;;;;;;8.02;2.17;;;;;;;;;;5053892;28;20325;-35
2023/08/21 01:26:34;;;;;;;9.67;2.67;;;;;;;;;;5053908;28;20096;-35
2023/08/21 01:28:59;;;;;;;12.00;2.63;;;;;;;;;;5053874;28;20657;-35
2023/08/21 01:31:26;;;;;;;8.83;2.50;;;;;;;;;;5054213;28;20271;-36
2023/08/21 01:33:53;;;;;;;8.02;2.33;;;;;;;;;;5054825;28;20028;-35
2023/08/21 01:36:20;;;;;;;8.30;2.85;;;;;;;;;;5054459;28;20025;-35
2023/08/21 01:38:45;;;;;;;7.32;2.30;;;;;;;;;;5053314;28;20135;-35
2023/08/21 01:41:10;;;;;;;5.77;2.30;;;;;;;;;;5054358;28;20029;-35
2023/08/21 01:43:35;;;;;;;7.93;2.50;;;;;;;;;;5054592;28;20262;-35
2023/08/21 01:46:01;;;;;;;8.43;2.43;;;;;;;;;;5054067;28;20503;-35
2023/08/21 01:48:26;;;;;;;11.40;2.90;;;;;;;;;;5054208;28;20251;-36
2023/08/21 01:50:51;;;;;;;5.20;2.20;;;;;;;;;;5053941;28;20427;-35
2023/08/21 01:53:17;;;;;;;6.07;2.43;;;;;;;;;;5053943;28;20024;-35
2023/08/21 01:55:42;;;;;;;6.40;2.35;;;;;;;;;;5054022;28;20263;-34
2023/08/21 01:58:07;;;;;;;9.27;2.50;;;;;;;;;;5054110;28;20028;-34
2023/08/21 02:00:32;;;;;;;8.23;2.40;;;;;;;;;;5053787;28;20013;-34
2023/08/21 02:02:57;;;;;;;8.97;2.20;;;;;;;;;;5053942;28;20021;-34
2023/08/21 02:05:22;;;;;;;9.77;2.40;;;;;;;;;;5053964;28;20309;-34
2023/08/21 02:07:48;;;;;;;5.70;2.40;;;;;;;;;;5053656;28;20288;-36
2023/08/21 02:10:13;;;;;;;6.47;2.30;;;;;;;;;;5053959;28;20769;-36
2023/08/21 02:12:38;;;;;;;5.68;2.40;;;;;;;;;;5053545;28;20297;-35
2023/08/21 02:15:04;;;;;;;4.78;2.17;;;;;;;;;;5053494;28;20044;-35
2023/08/21 02:17:29;;;;;;;6.07;2.08;;;;;;;;;;5054096;28;20051;-35
2023/08/21 02:19:55;;;;;;;5.32;2.40;;;;;;;;;;5053439;28;20468;-35
2023/08/21 02:22:20;;;;;;;6.15;2.40;;;;;;;;;;5053732;28;20029;-35
2023/08/21 02:24:45;;;;;;;5.43;2.17;;;;;;;;;;5053470;28;20020;-36
2023/08/21 02:27:10;;;;;;;7.00;2.25;;;;;;;;;;5053997;28;20106;-34
2023/08/21 02:29:35;;;;;;;4.47;2.00;;;;;;;;;;5053254;28;20024;-34
2023/08/21 02:32:01;;;;;;;3.57;2.10;;;;;;;;;;5053671;28;20247;-35
2023/08/21 02:34:26;;;;;;;6.23;2.20;;;;;;;;;;5053330;28;20370;-35
2023/08/21 02:36:52;;;;;;;8.85;2.38;;;;;;;;;;5053215;28;20264;-37
2023/08/21 02:39:17;;;;;;;3.78;2.22;;;;;;;;;;5053285;28;20052;-34
2023/08/21 02:41:42;;;;;;;5.73;2.30;;;;;;;;;;5053209;28;20032;-35
2023/08/21 02:44:07;;;;;;;9.73;2.73;;;;;;;;;;5053276;28;20021;-35
2023/08/21 02:46:34;;;;;;;7.33;2.43;;;;;;;;;;5053172;28;20111;-34
2023/08/21 02:48:59;;;;;;;8.20;2.58;;;;;;;;;;5053573;28;20422;-35
2023/08/21 02:51:24;;;;;;;5.90;2.23;;;;;;;;;;5053152;28;20017;-34
2023/08/21 02:53:49;;;;;;;6.17;2.30;;;;;;;;;;5052731;28;20267;-34
2023/08/21 02:56:14;;;;;;;6.27;2.10;;;;;;;;;;5053137;28;20263;-35
2023/08/21 02:58:40;;;;;;;5.77;2.00;;;;;;;;;;5053675;28;20052;-35
2023/08/21 03:01:05;;;;;;;7.18;2.33;;;;;;;;;;5052945;28;20021;-35
2023/08/21 03:03:32;;;;;;;6.45;2.33;;;;;;;;;;5053369;28;20048;-35
2023/08/21 03:05:57;;;;;;;4.93;2.20;;;;;;;;;;5053504;28;20029;-34
2023/08/21 03:08:22;;;;;;;4.73;2.03;;;;;;;;;;5057608;28;20025;-35
2023/08/21 03:10:48;;;;;;;3.70;2.20;;;;;;;;;;5057151;28;20021;-35
2023/08/21 03:13:13;;;;;;;8.13;2.40;;;;;;;;;;5056912;28;20337;-35
2023/08/21 03:15:38;;;;;;;5.55;2.10;;;;;;;;;;5055702;28;20317;-35
2023/08/21 03:18:03;;;;;;;5.13;2.10;;;;;;;;;;5057452;28;20017;-34
2023/08/21 03:20:28;;;;;;;5.97;2.25;;;;;;;;;;5057134;28;20274;-35
2023/08/21 03:22:54;;;;;;;8.10;2.30;;;;;;;;;;5056740;28;20368;-34
2023/08/21 03:25:19;;;;;;;5.73;2.10;;;;;;;;;;5056806;28;20013;-34
2023/08/21 03:27:49;;;;;;;5.33;2.07;;;;;;;;;;5057214;28;20258;-34
2023/08/21 03:30:14;;;;;;;7.32;2.30;;;;;;;;;;5056542;28;20251;-34
2023/08/21 03:32:40;;;;;;;8.70;2.20;;;;;;;;;;5056680;28;20028;-34
2023/08/21 03:35:05;;;;;;;6.60;2.10;;;;;;;;;;5056564;28;20033;-35
2023/08/21 03:37:30;;;;;;;5.35;2.25;;;;;;;;;;5056569;28;20740;-36
2023/08/21 03:39:55;;;;;;;5.30;2.10;;;;;;;;;;5056508;28;20096;-36
2023/08/21 03:42:21;;;;;;;6.57;2.42;;;;;;;;;;5056669;28;20281;-35
2023/08/21 03:44:48;;;;;;;3.87;1.80;;;;;;;;;;5056382;28;20017;-34
2023/08/21 03:47:14;;;;;;;5.38;2.10;;;;;;;;;;5056600;28;20504;-35
2023/08/21 03:49:39;;;;;;;3.92;2.10;;;;;;;;;;5056606;28;20052;-35
2023/08/21 03:52:04;;;;;;;5.70;2.20;;;;;;;;;;5056513;28;20025;-34
2023/08/21 03:54:30;;;;;;;5.10;2.10;;;;;;;;;;5056494;28;20298;-34
2023/08/21 03:56:55;;;;;;;4.90;2.10;;;;;;;;;;5056024;28;20028;-35
2023/08/21 03:59:20;;;;;;;4.87;2.30;;;;;;;;;;5056701;28;20024;-35
2023/08/21 04:01:45;;;;;;;6.70;2.30;;;;;;;;;;5056280;28;20021;-36
2023/08/21 04:04:11;;;;;;;9.20;2.20;;;;;;;;;;5056588;28;20310;-35
2023/08/21 04:06:36;;;;;;;6.38;2.10;;;;;;;;;;5055942;28;20375;-35
2023/08/21 04:09:01;;;;;;;14.05;2.35;;;;;;;;;;5055996;28;20080;-35
2023/08/21 04:11:28;;;;;;;3.65;1.95;;;;;;;;;;5055905;28;20032;-36
2023/08/21 04:13:53;;;;;;;5.78;2.05;;;;;;;;;;5056375;28;20119;-34
2023/08/21 04:16:21;;;;;;;7.67;2.60;;;;;;;;;;5055764;28;20024;-35
2023/08/21 04:18:46;;;;;;;6.72;2.30;;;;;;;;;;5055666;28;20618;-35
2023/08/21 04:21:11;;;;;;;5.33;2.07;;;;;;;;;;5055602;28;20013;-34
2023/08/21 04:23:36;;;;;;;5.47;2.10;;;;;;;;;;5054363;28;20293;-34
2023/08/21 04:26:03;;;;;;;4.83;2.13;;;;;;;;;;5055913;28;20512;-34
2023/08/21 04:28:30;;;;;;;4.30;2.10;;;;;;;;;;5055419;28;20259;-34
2023/08/21 04:30:57;;;;;;;4.80;2.17;;;;;;;;;;5055479;28;20017;-36
2023/08/21 04:33:22;;;;;;;6.85;2.08;;;;;;;;;;5055413;28;20020;-34
2023/08/21 04:35:47;;;;;;;6.17;2.10;;;;;;;;;;5055720;28;20033;-34
2023/08/21 04:38:13;;;;;;;5.83;2.03;;;;;;;;;;5055373;28;20587;-35
2023/08/21 04:40:38;;;;;;;5.57;2.20;;;;;;;;;;5055906;28;20287;-35
2023/08/21 04:43:03;;;;;;;7.63;2.53;;;;;;;;;;5055237;28;20455;-36
2023/08/21 04:45:28;;;;;;;8.73;2.37;;;;;;;;;;5055228;28;20730;-35
2023/08/21 04:47:53;;;;;;;6.43;2.23;;;;;;;;;;5055224;28;20251;-35
2023/08/21 04:50:19;;;;;;;15.23;2.60;;;;;;;;;;5055990;28;20016;-34
2023/08/21 04:52:44;;;;;;;4.40;2.30;;;;;;;;;;5055106;28;20096;-34
2023/08/21 04:55:09;;;;;;;6.77;2.67;;;;;;;;;;5055355;28;20052;-36
2023/08/21 04:57:34;;;;;;;5.68;2.40;;;;;;;;;;5055282;28;20738;-34
2023/08/21 05:00:00;;;;;;;6.40;2.28;;;;;;;;;;5055234;28;20013;-35
2023/08/21 05:02:25;;;;;;;6.70;2.37;;;;;;;;;;5055206;28;20103;-35
2023/08/21 05:04:50;;;;;;;5.28;2.20;;;;;;;;;;5054858;28;20669;-34
2023/08/21 05:07:15;;;;;;;10.07;2.33;;;;;;;;;;5055103;28;20360;-35
2023/08/21 05:09:40;;;;;;;5.65;2.47;;;;;;;;;;5055085;28;20290;-41
2023/08/21 05:12:07;;;;;;;7.90;2.40;;;;;;;;;;5054562;28;20049;-34
2023/08/21 05:14:32;;;;;;;5.90;2.50;;;;;;;;;;5054980;28;20310;-35
2023/08/21 05:16:58;;;;;;;5.27;2.13;;;;;;;;;;5054743;28;20049;-34
2023/08/21 05:19:24;;;;;;;5.70;2.75;;;;;;;;;;5054647;28;20279;-35
2023/08/21 05:21:49;;;;;;;7.85;2.83;;;;;;;;;;5054473;28;20033;-34
2023/08/21 05:24:14;;;;;;;9.07;2.50;;;;;;;;;;5054475;28;20092;-34
2023/08/21 05:26:39;;;;;;;8.13;2.50;;;;;;;;;;5054945;28;20240;-34
2023/08/21 05:29:04;;;;;;;9.10;2.63;;;;;;;;;;5053696;28;20290;-34
2023/08/21 05:31:30;;;;;;;12.02;2.55;;;;;;;;;;5054312;28;20025;-34
2023/08/21 05:33:55;;;;;;;6.17;2.60;;;;;;;;;;5054592;28;20017;-34
2023/08/21 05:36:20;;;;;;;7.43;2.42;;;;;;;;;;5054784;28;20255;-35
2023/08/21 05:38:47;;;;;;;7.60;3.05;;;;;;;;;;5054209;28;20024;-35
2023/08/21 05:41:13;;;;;;;6.20;2.53;;;;;;;;;;5054392;28;20101;-35
2023/08/21 05:43:39;;;;;;;7.97;2.78;;;;;;;;;;5054858;28;20108;-35
2023/08/21 05:46:05;;;;;;;9.63;2.63;;;;;;;;;;5054362;28;20404;-35
2023/08/21 05:48:31;;;;;;;13.27;2.53;;;;;;;;;;5053917;28;20013;-35
2023/08/21 05:50:57;;;;;;;8.43;2.67;;;;;;;;;;5053971;28;20053;-35
2023/08/21 05:53:22;;;;;;;9.85;2.78;;;;;;;;;;5053903;28;20024;-35
2023/08/21 05:55:47;;;;;;;7.80;2.60;;;;;;;;;;5052713;28;20115;-35
2023/08/21 05:58:12;;;;;;;8.80;2.50;;;;;;;;;;5053878;28;20350;-34
2023/08/21 06:00:38;;;;;;;7.77;3.07;;;;;;;;;;5053833;28;20070;-35
2023/08/21 06:03:03;;;;;;;7.10;2.70;;;;;;;;;;5053617;28;20033;-35
2023/08/21 06:05:28;;;;;;;6.30;2.70;;;;;;;;;;5053782;28;20017;-35
2023/08/21 06:07:54;;;;;;;7.67;2.33;;;;;;;;;;5052466;28;20274;-35
2023/08/21 06:10:19;;;;;;;6.95;2.55;;;;;;;;;;5053949;28;20259;-35
2023/08/21 06:12:44;;;;;;;7.87;2.40;;;;;;;;;;5053524;28;20503;-35
2023/08/21 06:15:10;;;;;;;5.45;2.08;;;;;;;;;;5053522;28;20016;-35
2023/08/21 06:17:35;;;;;;;8.57;2.33;;;;;;;;;;5053861;28;20029;-35
2023/08/21 06:20:01;;;;;;;12.48;2.50;;;;;;;;;;5053535;28;20024;-34
2023/08/21 06:22:26;;;;;;;6.72;2.38;;;;;;;;;;5053479;28;20460;-35
2023/08/21 06:24:51;;;;;;;9.10;2.33;;;;;;;;;;5054026;28;20025;-35
2023/08/21 06:27:16;;;;;;;4.93;2.50;;;;;;;;;;5053419;28;20086;-36
2023/08/21 06:29:42;;;;;;;13.45;2.72;;;;;;;;;;5053295;28;20021;-35
2023/08/21 06:32:07;;;;;;;9.53;2.60;;;;;;;;;;5053383;28;20380;-36
2023/08/21 06:34:32;;;;;;;6.37;2.40;;;;;;;;;;5053395;28;20494;-36
2023/08/21 06:36:57;;;;;;;5.93;2.20;;;;;;;;;;5053316;28;20519;-35
2023/08/21 06:39:22;;;;;;;7.23;2.70;;;;;;;;;;5053617;28;20021;-35
2023/08/21 06:41:48;;;;;;;8.07;2.60;;;;;;;;;;5053150;28;20423;-36
2023/08/21 06:44:13;;;;;;;11.67;3.10;;;;;;;;;;5053253;28;20468;-35
2023/08/21 06:46:38;;;;;;;9.30;2.97;;;;;;;;;;5053597;28;20009;-35
2023/08/21 06:49:03;;;;;;;9.53;3.27;;;;;;;;;;5053247;28;20074;-35
2023/08/21 06:51:28;;;;;;;7.85;2.40;;;;;;;;;;5053251;28;20021;-35
2023/08/21 06:53:54;;;;;;;6.17;2.70;;;;;;;;;;5053519;28;20017;-35
2023/08/21 06:56:19;;;;;;;8.00;2.90;;;;;;;;;;5053189;28;20013;-35
2023/08/21 06:58:44;;;;;;;7.87;2.67;;;;;;;;;;5053493;28;20298;-35
2023/08/21 07:01:09;;;;;;;11.10;2.87;;;;;;;;;;5053185;28;20270;-35
2023/08/21 07:03:34;;;;;;;8.13;3.07;;;;;;;;;;5053020;28;20029;-35
2023/08/21 07:06:00;;;;;;;8.93;2.70;;;;;;;;;;5053408;28;20260;-35
2023/08/21 07:08:26;;;;;;;9.52;2.60;;;;;;;;;;5053114;28;20377;-35
2023/08/21 07:10:51;;;;;;;11.75;2.88;;;;;;;;;;5053101;28;20017;-36
2023/08/21 07:13:16;;;;;;;9.07;2.60;;;;;;;;;;5053021;28;20086;-36
2023/08/21 07:15:42;;;;;;;11.97;2.83;;;;;;;;;;5053124;28;20024;-36
2023/08/21 07:18:07;;;;;;;9.90;2.40;;;;;;;;;;5053072;28;20056;-36
2023/08/21 07:20:33;;;;;;;7.25;2.30;;;;;;;;;;5053171;28;20017;-36
2023/08/21 07:22:58;;;;;;;14.13;2.80;;;;;;;;;;5052777;28;20491;-36
2023/08/21 07:25:25;;;;;;;7.25;2.20;;;;;;;;;;5053244;28;20293;-36
2023/08/21 07:27:50;;;;;;;10.48;2.50;;;;;;;;;;5053134;28;20014;-36
2023/08/21 07:30:16;;;;;;;9.23;2.20;;;;;;;;;;5052755;28;20044;-36
2023/08/21 07:32:41;;;;;;;8.50;2.00;;;;;;;;;;5053083;28;20521;-36
2023/08/21 07:35:06;;;;;;;5.40;1.80;;;;;;;;;;5052768;28;20074;-36
2023/08/21 07:37:32;;;;;;;8.25;2.03;;;;;;;;;;5053353;28;20013;-35
2023/08/21 07:39:57;;;;;;;9.60;2.03;;;;;;;;;;5053123;28;20036;-36
2023/08/21 07:42:23;;;;;;;6.50;1.88;;;;;;;;;;5052988;28;20100;-36
2023/08/21 07:44:48;;;;;;;7.03;1.80;;;;;;;;;;5052795;28;20040;-36
2023/08/21 07:47:13;;;;;;;7.23;1.90;;;;;;;;;;5052992;28;20021;-36
2023/08/21 07:49:38;;;;;;;7.37;1.90;;;;;;;;;;5053033;28;20055;-35
2023/08/21 07:52:04;;;;;;;11.67;2.33;;;;;;;;;;5053092;28;20025;-36
2023/08/21 07:54:29;;;;;;;8.40;1.88;;;;;;;;;;5056569;28;20025;-35
2023/08/21 07:56:54;;;;;;;6.83;1.80;;;;;;;;;;5056553;28;20105;-36
2023/08/21 07:59:20;;;;;;;8.57;1.90;;;;;;;;;;5056236;28;20614;-35
2023/08/21 08:01:45;;;;;;;6.28;1.75;;;;;;;;;;5056076;28;20024;-36
2023/08/21 08:04:10;;;;;;;7.57;2.10;;;;;;;;;;5056439;28;20053;-36
2023/08/21 08:06:36;;;;;;;7.85;1.90;;;;;;;;;;5056382;28;20017;-36
2023/08/21 08:09:01;;;;;;;10.55;2.00;;;;;;;;;;5054734;28;20013;-36
2023/08/21 08:11:26;;;;;;;7.90;1.80;;;;;;;;;;5054599;28;20033;-35
2023/08/21 08:13:51;;;;;;;7.63;1.90;;;;;;;;;;5055952;28;20009;-35
2023/08/21 08:16:17;;;;;;;8.17;1.90;;;;;;;;;;5055865;28;20252;-35
2023/08/21 08:18:42;;;;;;;9.75;1.80;;;;;;;;;;5056137;28;20251;-35
2023/08/21 08:21:08;;;;;;;7.90;1.63;;;;;;;;;;5055760;28;20020;-35
2023/08/21 08:23:34;;;;;;;9.38;2.15;;;;;;;;;;5055607;28;20044;-36
2023/08/21 08:25:59;;;;;;;5.45;1.65;;;;;;;;;;5055919;28;20013;-36
2023/08/21 08:28:24;;;;;;;7.03;1.60;;;;;;;;;;5061082;28;20478;-27
2023/08/21 08:30:50;;;;;;;7.23;1.60;;;;;;;;;;5055826;28;20309;-27
2023/08/21 08:33:15;;;;;;;8.55;1.65;;;;;;;;;;5055544;28;20325;-33
2023/08/21 08:35:41;;;;;;;8.90;1.80;;;;;;;;;;5055519;28;20442;-28
2023/08/21 08:38:06;;;;;;;15.70;1.83;;;;;;;;;;5055741;28;20052;-28
2023/08/21 08:40:31;;;;;;;6.27;1.97;;;;;;;;;;5055862;28;20454;-29
2023/08/21 08:42:57;;;;;;;8.10;1.80;;;;;;;;;;5055865;28;20020;-28
2023/08/21 08:45:27;;;;;;;6.50;1.60;;;;;;;;;;5055337;28;20379;-28
2023/08/21 08:47:53;;;;;;;8.32;1.88;;;;;;;;;;5055338;28;20014;-28
2023/08/21 08:50:19;;;;;;;7.32;1.67;;;;;;;;;;5055329;28;20045;-29
2023/08/21 08:52:45;;;;;;;8.13;2.03;;;;;;;;;;5055908;28;20025;-28
2023/08/21 08:55:11;;;;;;;8.48;1.88;;;;;;;;;;5055409;28;20031;-28
2023/08/21 08:57:36;;;;;;;8.25;1.80;;;;;;;;;;5055450;28;20068;-29
2023/08/21 09:00:03;;;;;;;10.18;1.98;;;;;;;;;;5055619;28;20032;-32
2023/08/21 09:02:28;;;;;;;7.18;1.90;;;;;;;;;;5055189;28;20374;-28
2023/08/21 09:04:54;;;;;;;10.73;2.00;;;;;;;;;;5054142;28;20013;-28
2023/08/21 09:07:19;;;;;;;6.93;1.90;;;;;;;;;;5054845;28;20048;-29
2023/08/21 09:09:45;;;;;;;6.32;1.77;;;;;;;;;;5054872;28;20021;-29
2023/08/21 09:12:12;;;;;;;8.32;1.80;;;;;;;;;;5054998;28;20049;-28
2023/08/21 09:14:39;;;;;;;6.55;1.85;;;;;;;;;;5055053;28;20048;-28
2023/08/21 09:17:04;;;;;;;8.88;2.00;;;;;;;;;;5054777;28;20032;-28
2023/08/21 09:19:29;;;;;;;11.07;1.87;;;;;;;;;;5054724;28;20021;-29
2023/08/21 09:21:54;;;;;;;8.40;1.97;;;;;;;;;;5055115;28;20021;-28
2023/08/21 09:24:19;;;;;;;11.90;2.07;;;;;;;;;;5054570;28;20024;-28
2023/08/21 09:26:44;;;;;;;10.07;1.73;;;;;;;;;;5054556;28;20024;-28
2023/08/21 09:29:10;;;;;;;9.87;1.83;;;;;;;;;;5054488;28;20058;-28
2023/08/21 09:31:36;;;;;;;7.80;2.25;;;;;;;;;;5054635;28;20104;-28
2023/08/21 09:34:04;;;;;;;8.35;1.92;;;;;;;;;;5054450;28;20475;-29
2023/08/21 09:36:30;;;;;;;5.10;1.50;;;;;;;;;;5054673;28;20020;-29
2023/08/21 09:38:55;;;;;;;4.38;1.58;;;;;;;;;;5054488;28;20028;-29
2023/08/21 09:41:21;;;;;;;7.27;1.60;;;;;;;;;;5054422;28;20045;-29
2023/08/21 09:43:46;;;;;;;6.15;2.00;;;;;;;;;;5054490;28;20029;-29
2023/08/21 09:46:16;;;;;;;6.82;1.88;;;;;;;;;;5054094;28;20464;-29
2023/08/21 09:48:43;;;;;;;7.72;1.88;;;;;;;;;;5054420;28;20437;-29
2023/08/21 09:51:08;;;;;;;6.82;1.90;;;;;;;;;;5054618;28;20013;-29
2023/08/21 09:53:33;;;;;;;4.82;1.98;;;;;;;;;;5054062;28;20111;-29
2023/08/21 09:56:01;;;;;;;7.17;2.00;;;;;;;;;;5052804;28;20044;-29
2023/08/21 09:58:26;;;;;;;8.60;1.80;;;;;;;;;;5054236;28;20471;-29
2023/08/21 10:00:51;;;;;;;8.53;1.80;;;;;;;;;;5054508;28;20079;-30
2023/08/21 10:03:20;;;;;;;6.40;1.50;;;;;;;;;;5053799;28;20028;-29
2023/08/21 10:05:47;;;;;;;9.02;1.65;;;;;;;;;;5053818;28;20013;-29
2023/08/21 10:08:13;;;;;;;10.48;1.83;;;;;;;;;;5054259;28;20017;-29
2023/08/21 10:10:39;;;;;;;10.25;1.90;;;;;;;;;;5053633;28;20299;-29
2023/08/21 10:13:05;;;;;;;7.50;1.88;;;;;;;;;;5053544;28;20105;-32
2023/08/21 10:15:32;;;;;;;8.93;2.33;;;;;;;;;;5053612;28;20388;-30
2023/08/21 10:17:57;;;;;;;8.15;1.95;;;;;;;;;;5053526;28;20025;-28
2023/08/21 10:20:24;;;;;;;7.25;2.13;;;;;;;;;;5053532;28;20066;-29
2023/08/21 10:22:50;;;;;;;9.70;2.20;;;;;;;;;;5053483;28;20112;-29
2023/08/21 10:25:21;;;;;;;9.70;2.33;;;;;;;;;;5053411;28;20013;-29
2023/08/21 10:27:49;;;;;;;8.18;1.90;;;;;;;;;;5053419;28;20021;-29
2023/08/21 10:30:15;;;;;;;8.52;1.90;;;;;;;;;;5053636;28;20357;-30
2023/08/21 10:32:47;;;;;;;6.72;2.20;;;;;;;;;;5053274;28;20013;-30
2023/08/21 10:35:12;;;;;;;;;;;;;;;;;;5054143;28;20025;-29
2023/08/21 10:37:57;;;;;;;10.10;2.60;;;;;;;;;;5053432;28;19911;-30
2023/08/21 10:40:24;;;;;;;9.65;2.13;;;;;;;;;;5053989;28;20059;-29
2023/08/21 10:42:49;;;;;;;10.23;2.03;;;;;;;;;;5053173;28;20024;-28
2023/08/21 10:45:14;;;;;;;10.20;2.10;;;;;;;;;;5053357;28;20036;-28
2023/08/21 10:47:39;;;;;;;7.07;1.90;;;;;;;;;;5053251;28;20255;-28
2023/08/21 10:50:05;;;;;;;11.43;2.17;;;;;;;;;;5053378;28;20014;-28
2023/08/21 10:52:39;;;;;;;7.35;1.92;;;;;;;;;;5053256;28;20024;-28
2023/08/21 10:55:04;;;;;;;6.47;1.65;;;;;;;;;;5053230;28;20028;-28
2023/08/21 10:57:30;;;;;;;8.15;1.80;;;;;;;;;;5052422;28;20017;-28
2023/08/21 10:59:57;;;;;;;6.53;1.50;;;;;;;;;;5051808;28;20063;-28
2023/08/21 11:02:23;;;;;;;5.22;1.50;;;;;;;;;;5053276;28;20025;-28
2023/08/21 11:04:49;;;;;;;4.57;1.50;;;;;;;;;;5053088;28;20021;-28
2023/08/21 11:07:14;;;;;;;4.88;1.42;;;;;;;;;;5053323;28;20021;-29
2023/08/21 11:09:40;;;;;;;7.20;1.60;;;;;;;;;;5053607;28;20017;-28
2023/08/21 11:12:15;;;;;;;7.03;1.73;;;;;;;;;;5052916;28;20103;-28
2023/08/21 11:14:40;;;;;;;8.48;2.00;;;;;;;;;;5053295;28;20293;-28
2023/08/21 11:17:07;;;;;;;5.97;1.20;;;;;;;;;;5052917;28;20407;-28
2023/08/21 11:19:32;;;;;;;5.40;1.30;;;;;;;;;;5053228;28;20100;-28
2023/08/21 11:22:04;;;;;;;14.32;3.30;;;;;;;;;;5053054;28;20055;-28
2023/08/21 11:24:30;;;;;;;6.25;1.70;;;;;;;;;;5053100;28;20496;-28
2023/08/21 11:26:56;;;;;;;4.90;1.52;;;;;;;;;;5053765;28;20051;-28
2023/08/21 11:29:21;;;;;;;7.80;1.60;;;;;;;;;;5057102;28;20048;-28
2023/08/21 11:31:47;;;;;;;8.00;1.70;;;;;;;;;;5056927;28;20391;-29
2023/08/21 11:34:17;;;;;;;29.27;2.60;;;;;;;;;;5056959;28;20397;-28
2023/08/21 11:36:43;;;;;;;6.72;1.67;;;;;;;;;;5056831;28;20103;-28
2023/08/21 11:39:08;;;;;;;7.57;1.70;;;;;;;;;;5056618;28;20091;-28
2023/08/21 11:41:52;;;;;;;4.88;1.63;;;;;;;;;;5056746;28;20049;-28
2023/08/21 11:44:17;;;;;;;8.40;1.75;;;;;;;;;;5056890;28;20420;-28
2023/08/21 11:46:42;;;;;;;8.07;1.90;;;;;;;;;;5056408;28;20044;-29
2023/08/21 11:49:08;;;;;;;6.10;2.03;;;;;;;;;;5056377;28;20024;-29
2023/08/21 11:51:37;;;;;;;6.10;1.80;;;;;;;;;;5056604;28;20053;-28
2023/08/21 11:54:04;;;;;;;6.40;1.50;;;;;;;;;;5056513;28;20100;-27
2023/08/21 11:56:29;;;;;;;5.38;1.65;;;;;;;;;;5056253;28;20012;-28
2023/08/21 11:58:54;;;;;;;6.18;1.70;;;;;;;;;;5056437;28;20078;-28
2023/08/21 12:01:20;;;;;;;8.30;1.60;;;;;;;;;;5056405;28;20017;-28
2023/08/21 12:03:45;;;;;;;4.97;1.50;;;;;;;;;;5056544;28;20025;-28
2023/08/21 12:06:11;;;;;;;6.57;1.60;;;;;;;;;;5056198;28;20020;-29
2023/08/21 12:08:37;;;;;;;5.55;1.50;;;;;;;;;;5056123;28;20052;-28
2023/08/21 12:11:02;;;;;;;6.80;1.77;;;;;;;;;;5055769;28;20013;-30
2023/08/21 12:13:27;;;;;;;7.93;1.73;;;;;;;;;;5056226;28;20447;-28
2023/08/21 12:15:52;;;;;;;10.27;2.10;;;;;;;;;;5054665;28;20017;-29
2023/08/21 12:18:18;;;;;;;6.93;1.90;;;;;;;;;;5055906;28;20339;-29
2023/08/21 12:20:43;;;;;;;6.63;1.80;;;;;;;;;;5055857;28;20071;-29
2023/08/21 12:23:08;;;;;;;5.83;1.73;;;;;;;;;;5056018;28;20047;-29
2023/08/21 12:25:33;;;;;;;9.23;2.03;;;;;;;;;;5055806;28;20020;-29
2023/08/21 12:27:58;;;;;;;10.07;2.07;;;;;;;;;;5055789;28;20012;-29
2023/08/21 12:30:24;;;;;;;11.87;2.30;;;;;;;;;;5055924;28;20021;-29
2023/08/21 12:32:49;;;;;;;7.57;1.45;;;;;;;;;;5055896;28;20051;-29
2023/08/21 12:35:15;;;;;;;5.03;1.33;;;;;;;;;;5055842;28;20032;-29
2023/08/21 12:37:40;;;;;;;4.47;1.20;;;;;;;;;;5055817;28;20036;-29
2023/08/21 12:40:06;;;;;;;6.10;1.40;;;;;;;;;;5054051;28;20017;-30
2023/08/21 12:42:31;;;;;;;5.40;1.50;;;;;;;;;;5055632;28;20581;-29
2023/08/21 12:44:56;;;;;;;4.80;1.40;;;;;;;;;;5055948;28;20052;-28
2023/08/21 12:47:22;;;;;;;4.60;1.20;;;;;;;;;;5055901;28;20020;-28
2023/08/21 12:49:47;;;;;;;2.70;1.00;;;;;;;;;;5055555;28;20043;-28
2023/08/21 12:52:12;;;;;;;3.73;0.93;;;;;;;;;;5055303;28;20017;-29
2023/08/21 12:54:38;;;;;;;3.40;1.07;;;;;;;;;;5055483;28;20305;-28
2023/08/21 12:57:03;;;;;;;3.58;1.33;;;;;;;;;;5055131;28;20056;-28
2023/08/21 12:59:29;;;;;;;7.25;1.50;;;;;;;;;;5053843;28;20060;-28
2023/08/21 13:01:54;;;;;;;6.90;1.40;;;;;;;;;;5055210;28;20017;-28
2023/08/21 13:04:19;;;;;;;6.47;1.52;;;;;;;;;;5055419;28;20056;-29
2023/08/21 13:06:44;;;;;;;6.20;1.50;;;;;;;;;;5054976;28;20052;-30
2023/08/21 13:09:09;;;;;;;4.97;1.33;;;;;;;;;;5054978;28;20028;-29
2023/08/21 13:11:35;;;;;;;5.40;1.60;;;;;;;;;;5054670;28;20438;-29
2023/08/21 13:14:00;;;;;;;4.87;1.40;;;;;;;;;;5053573;28;20021;-29
2023/08/21 13:16:25;;;;;;;4.50;1.23;;;;;;;;;;5055336;28;20017;-30
2023/08/21 13:18:50;;;;;;;6.80;1.70;;;;;;;;;;5054662;28;20023;-28
2023/08/21 13:21:15;;;;;;;4.67;1.60;;;;;;;;;;5054756;28;20023;-29
2023/08/21 13:23:41;;;;;;;4.37;1.33;;;;;;;;;;5054568;28;20376;-29
2023/08/21 13:26:06;;;;;;;6.73;1.53;;;;;;;;;;5054832;28;20474;-29
2023/08/21 13:28:31;;;;;;;5.33;1.40;;;;;;;;;;5055097;28;20023;-28
2023/08/21 13:30:56;;;;;;;9.67;1.47;;;;;;;;;;5054413;28;20104;-28
2023/08/21 13:33:22;;;;;;;5.50;1.50;;;;;;;;;;5054602;28;20074;-29
2023/08/21 13:35:47;;;;;;;4.33;1.37;;;;;;;;;;5053798;28;20028;-28
2023/08/21 13:38:13;;;;;;;6.07;1.40;;;;;;;;;;5052480;28;20024;-29
2023/08/21 13:40:38;;;;;;;7.43;1.33;;;;;;;;;;5053490;28;20024;-28
2023/08/21 13:43:03;;;;;;;5.97;1.60;;;;;;;;;;5053457;28;20033;-29
2023/08/21 13:45:29;;;;;;;5.88;1.38;;;;;;;;;;5052559;28;20009;-28
2023/08/21 13:47:54;;;;;;;5.03;1.13;;;;;;;;;;5053521;28;20066;-28
2023/08/21 13:50:19;;;;;;;3.43;1.20;;;;;;;;;;5050333;28;20356;-28
2023/08/21 13:52:45;;;;;;;3.92;1.10;;;;;;;;;;5050711;28;20017;-29
2023/08/21 13:55:10;;;;;;;5.93;1.30;;;;;;;;;;5050588;28;20048;-28
2023/08/21 13:57:37;;;;;;;4.68;1.30;;;;;;;;;;5050839;28;20360;-29
2023/08/21 14:00:07;;;;;;;4.57;1.55;;;;;;;;;;5050562;28;20074;-29
2023/08/21 14:02:33;;;;;;;3.83;1.00;;;;;;;;;;5051252;28;20028;-29
2023/08/21 14:04:58;;;;;;;4.97;1.20;;;;;;;;;;5052734;28;20020;-29
2023/08/21 14:07:23;;;;;;;2.13;1.00;;;;;;;;;;5053828;28;20060;-29
2023/08/21 14:09:48;;;;;;;3.47;0.87;;;;;;;;;;5054263;28;20048;-29
2023/08/21 14:12:13;;;;;;;5.53;1.27;;;;;;;;;;5053578;28;20131;-29
2023/08/21 14:14:39;;;;;;;3.43;1.10;;;;;;;;;;5053637;28;20259;-29
2023/08/21 14:17:04;;;;;;;8.98;1.30;;;;;;;;;;5052372;28;20017;-29
2023/08/21 14:19:30;;;;;;;5.97;1.23;;;;;;;;;;5054446;28;20380;-29
2023/08/21 14:21:55;;;;;;;5.22;1.33;;;;;;;;;;5054023;28;20108;-29
2023/08/21 14:24:20;;;;;;;5.60;1.20;;;;;;;;;;5053524;28;20017;-29
2023/08/21 14:26:45;;;;;;;5.38;1.42;;;;;;;;;;5054033;28;20028;-29
2023/08/21 14:29:10;;;;;;;6.30;1.33;;;;;;;;;;5053558;28;20398;-29
2023/08/21 14:31:36;;;;;;;4.10;1.23;;;;;;;;;;5053683;28;20368;-29